Terminal Aerodrome Forecast
Issued by NWS Quad Cities IA IL

Home | Current Version | Previous Version | Text Only | Print | Product List | Glossary On
Versions: 1 2 3 4 5 6 7 8 9 10 11 12 13 14
000
FTUS43 KDVN 191100 RRA
TAFMLI
TAF
KMLI 191143Z 1912/2012 08005KT P6SM BKN060
     FM191600 11005KT P6SM BKN050
      TEMPO 1920/1924 5SM SHRA BKN025
     FM200000 13007KT 4SM RA OVC025
     FM200500 31011KT 4SM -RA OVC020=

USA.gov is the U.S. government's official web portal to all federal, state and local government web resources and services.